createdAt,value
2017-11-05T00:02:26.806Z,52.03
2017-11-05T00:04:59.354Z,47.13
2017-11-05T00:07:32.758Z,52.03
2017-11-05T00:10:21.230Z,54.23
2017-11-05T00:12:53.861Z,50.87
2017-11-05T00:15:26.337Z,42.43
2017-11-05T00:17:52.355Z,49.73
2017-11-05T00:20:24.120Z,42.87
2017-11-05T00:23:01.544Z,41.17
2017-11-05T00:25:44.970Z,48.33
2017-11-05T00:28:24.706Z,45.97
2017-11-05T00:30:59.310Z,47.00
2017-11-05T00:33:29.097Z,46.70
2017-11-05T00:36:02.563Z,47.20
2017-11-05T00:38:32.438Z,48.27
2017-11-05T00:41:20.218Z,60.47
2017-11-05T00:43:50.678Z,48.80
2017-11-05T00:46:23.302Z,46.23
2017-11-05T00:48:51.329Z,45.03
2017-11-05T00:51:19.095Z,43.47
2017-11-05T00:53:48.526Z,46.10
2017-11-05T00:56:23.897Z,52.13
2017-11-05T00:59:07.624Z,47.37
2017-11-05T01:01:33.554Z,48.30
2017-11-05T01:03:59.536Z,54.53
2017-11-05T01:06:32.410Z,51.67
2017-11-05T01:08:58.438Z,47.17
2017-11-05T01:11:24.474Z,55.50
2017-11-05T01:13:53.911Z,52.53
2017-11-05T01:19:16.846Z,46.43
2017-11-05T01:21:50.171Z,48.73
2017-11-05T01:24:37.851Z,46.37
2017-11-05T01:27:03.902Z,56.63
2017-11-05T01:29:51.086Z,44.93
2017-11-05T01:32:17.051Z,50.30
2017-11-05T01:34:52.306Z,47.73
2017-11-05T01:37:42.950Z,46.70
2017-11-05T01:40:19.654Z,51.53
2017-11-05T01:43:01.230Z,47.10
2017-11-05T01:45:34.237Z,41.80
2017-11-05T01:48:02.032Z,50.23
2017-11-05T01:50:32.282Z,42.93
2017-11-05T01:52:58.389Z,47.33
2017-11-05T01:55:35.228Z,43.03
2017-11-05T01:58:03.004Z,48.60
2017-11-05T02:00:29.709Z,51.43
2017-11-05T02:02:55.643Z,47.27
2017-11-05T02:05:21.685Z,43.70
2017-11-05T02:07:58.802Z,46.13
2017-11-05T02:10:37.359Z,46.43
2017-11-05T02:13:17.875Z,48.60
2017-11-05T02:15:44.911Z,61.87
2017-11-05T02:18:11.630Z,55.00
2017-11-05T02:20:37.657Z,47.03
2017-11-05T02:23:03.578Z,58.03
2017-11-05T02:25:39.978Z,51.50
2017-11-05T02:28:32.474Z,54.73
2017-11-05T02:31:07.301Z,49.43
2017-11-05T02:36:40.274Z,48.20
2017-11-05T02:39:11.866Z,55.43
2017-11-05T02:41:37.931Z,45.87
2017-11-05T02:47:02.489Z,58.03
2017-11-05T02:49:34.999Z,46.10
2017-11-05T02:52:03.802Z,48.47
2017-11-05T02:54:43.062Z,46.93
2017-11-05T02:57:30.197Z,44.93
2017-11-05T02:59:57.184Z,57.13
2017-11-05T03:02:39.523Z,44.13
2017-11-05T03:05:18.936Z,46.40
2017-11-05T03:07:46.869Z,47.37
2017-11-05T03:10:12.906Z,49.53
2017-11-05T03:12:49.206Z,49.13
2017-11-05T03:15:15.223Z,50.27
2017-11-05T03:17:41.918Z,54.23
2017-11-05T03:20:08.874Z,48.33
2017-11-05T03:22:42.319Z,45.60
2017-11-05T03:25:13.022Z,47.83
2017-11-05T03:27:45.423Z,42.23
2017-11-05T03:30:30.990Z,47.27
2017-11-05T03:33:01.221Z,45.87
2017-11-05T03:35:38.689Z,40.03
2017-11-05T03:38:04.783Z,45.33
2017-11-05T03:40:45.015Z,40.80
2017-11-05T03:43:19.738Z,44.87
2017-11-05T03:45:57.422Z,38.00
2017-11-05T03:48:34.310Z,46.60
2017-11-05T03:51:07.697Z,44.33
2017-11-05T03:53:36.496Z,44.20
2017-11-05T03:56:04.453Z,43.57
2017-11-05T03:58:38.287Z,37.00
2017-11-05T04:01:04.203Z,34.70
2017-11-05T04:06:31.165Z,44.77
2017-11-05T04:09:03.502Z,41.77
2017-11-05T04:11:29.521Z,45.00
2017-11-05T04:13:55.581Z,48.20
2017-11-05T04:16:25.586Z,42.40
2017-11-05T04:19:01.998Z,46.07
2017-11-05T04:21:41.740Z,43.17
2017-11-05T04:24:25.367Z,41.60
2017-11-05T04:27:04.386Z,40.33
2017-11-05T04:29:54.836Z,40.00
2017-11-05T04:32:26.635Z,42.83
2017-11-05T04:34:59.943Z,39.40
2017-11-05T04:37:29.630Z,42.80
2017-11-05T04:40:06.822Z,44.07
2017-11-05T04:42:32.816Z,42.10
2017-11-05T04:44:58.842Z,48.87
2017-11-05T04:50:22.090Z,44.50
2017-11-05T04:52:48.172Z,44.70
2017-11-05T04:55:16.204Z,47.20
2017-11-05T04:57:52.898Z,41.07
2017-11-05T05:00:18.872Z,43.53
2017-11-05T05:02:45.949Z,41.73
2017-11-05T05:05:22.173Z,46.23
2017-11-05T05:07:51.788Z,44.00
2017-11-05T05:10:17.817Z,48.57
2017-11-05T05:12:45.771Z,38.17
2017-11-05T05:15:16.109Z,41.80
2017-11-05T05:17:49.634Z,44.30
2017-11-05T05:20:16.677Z,41.47
2017-11-05T05:22:45.993Z,39.43
2017-11-05T05:25:12.003Z,38.07
2017-11-05T05:27:48.478Z,41.00
2017-11-05T05:30:18.406Z,48.40
2017-11-05T05:32:47.656Z,45.60
2017-11-05T05:35:18.115Z,41.97
2017-11-05T05:37:49.550Z,39.80
2017-11-05T05:40:20.081Z,36.37
2017-11-05T05:42:58.645Z,52.40
2017-11-05T05:45:28.596Z,39.30
2017-11-05T05:47:54.638Z,49.90
2017-11-05T05:50:24.131Z,43.90
2017-11-05T05:52:50.201Z,42.73
2017-11-05T05:55:18.170Z,46.63
2017-11-05T05:57:44.289Z,41.23
2017-11-05T06:00:10.452Z,42.83
2017-11-05T06:02:52.158Z,51.73
2017-11-05T06:05:29.094Z,42.33
2017-11-05T06:07:56.942Z,48.83
2017-11-05T06:10:47.412Z,49.93
2017-11-05T06:13:13.359Z,44.33
2017-11-05T06:16:00.685Z,43.73
2017-11-05T06:18:27.359Z,44.27
2017-11-05T06:21:08.570Z,41.77
2017-11-05T06:23:36.573Z,42.43
2017-11-05T06:26:02.614Z,40.23
2017-11-05T06:28:31.527Z,34.77
2017-11-05T06:30:57.453Z,38.90
2017-11-05T06:33:29.094Z,50.47
2017-11-05T06:35:57.781Z,36.33
2017-11-05T06:38:41.660Z,36.37
2017-11-05T06:41:07.911Z,37.90
2017-11-05T06:43:48.153Z,40.40
2017-11-05T06:46:28.614Z,41.23
2017-11-05T06:49:02.220Z,36.50
2017-11-05T06:51:28.301Z,38.50
2017-11-05T06:53:54.321Z,35.07
2017-11-05T06:56:20.349Z,29.93
2017-11-05T06:58:49.897Z,35.47
2017-11-05T07:01:22.467Z,31.10
2017-11-05T07:04:08.706Z,27.27
2017-11-05T07:06:38.242Z,22.93
2017-11-05T07:09:08.154Z,25.83
2017-11-05T07:11:34.174Z,22.60
2017-11-05T07:14:00.195Z,23.83
2017-11-05T07:16:27.310Z,21.87
2017-11-05T07:18:56.409Z,25.87
2017-11-05T07:21:32.678Z,26.07
2017-11-05T07:23:59.699Z,24.87
2017-11-05T07:26:30.514Z,29.00
2017-11-05T07:29:02.410Z,31.67
2017-11-05T07:31:31.997Z,23.43
2017-11-05T07:34:01.862Z,28.27
2017-11-05T07:36:31.523Z,26.70
2017-11-05T07:38:58.505Z,26.90
2017-11-05T07:44:17.990Z,30.47
2017-11-05T07:47:05.865Z,26.60
2017-11-05T07:49:35.877Z,29.73
2017-11-05T07:52:22.282Z,28.80
2017-11-05T07:55:02.012Z,25.40
2017-11-05T07:57:28.003Z,31.47
2017-11-05T07:59:55.015Z,30.60
2017-11-05T08:02:21.614Z,30.90
2017-11-05T08:07:50.722Z,29.00
2017-11-05T08:10:27.275Z,27.17
2017-11-05T08:12:53.264Z,27.30
2017-11-05T08:15:39.457Z,25.40
2017-11-05T08:18:05.412Z,26.03
2017-11-05T08:20:38.523Z,24.83
2017-11-05T08:23:04.553Z,25.13
2017-11-05T08:25:30.542Z,28.50
2017-11-05T08:27:58.678Z,19.90
2017-11-05T08:30:24.615Z,25.07
2017-11-05T08:32:54.569Z,20.43
2017-11-05T08:35:21.332Z,19.07
2017-11-05T08:37:47.349Z,12.80
2017-11-05T08:40:16.232Z,6.97
2017-11-05T08:42:45.998Z,6.37
2017-11-05T08:45:20.588Z,3.60
2017-11-05T08:47:47.520Z,2.10
2017-11-05T08:50:13.584Z,2.03
2017-11-05T08:52:44.205Z,3.33
2017-11-05T08:55:18.797Z,2.03
2017-11-05T08:57:49.111Z,1.87
2017-11-05T09:00:25.928Z,2.07
2017-11-05T09:02:53.247Z,1.40
2017-11-05T09:05:19.301Z,1.93
2017-11-05T09:07:45.936Z,1.17
2017-11-05T09:10:15.975Z,1.47
2017-11-05T09:12:48.342Z,1.53
2017-11-05T09:15:21.977Z,2.40
2017-11-05T09:17:55.471Z,1.97
2017-11-05T09:23:16.570Z,1.40
2017-11-05T09:25:48.591Z,1.90
2017-11-05T09:28:25.880Z,1.80
2017-11-05T09:31:03.058Z,3.50
2017-11-05T09:33:30.194Z,2.37
2017-11-05T09:35:56.181Z,1.93
2017-11-05T09:38:26.201Z,1.83
2017-11-05T09:40:52.330Z,1.27
2017-11-05T09:43:19.690Z,1.40
2017-11-05T09:45:53.449Z,2.13
2017-11-05T09:48:21.478Z,2.27
2017-11-05T09:51:03.417Z,1.57
2017-11-05T09:56:22.463Z,2.23
2017-11-05T09:58:49.196Z,1.80
2017-11-05T10:01:16.703Z,1.63
2017-11-05T10:03:46.118Z,2.00
2017-11-05T10:06:13.120Z,2.47
2017-11-05T10:08:48.666Z,2.37
2017-11-05T10:11:27.206Z,4.03
2017-11-05T10:13:57.777Z,2.13
2017-11-05T10:16:25.785Z,2.73
2017-11-05T10:19:15.315Z,1.93
2017-11-05T10:21:48.894Z,2.67
2017-11-05T10:27:14.991Z,4.00
2017-11-05T10:29:45.769Z,2.00
2017-11-05T10:32:17.274Z,2.93
2017-11-05T10:34:43.239Z,1.90
2017-11-05T10:37:19.398Z,2.37
2017-11-05T10:39:46.414Z,2.57
2017-11-05T10:42:20.248Z,1.97
2017-11-05T10:44:46.265Z,2.17
2017-11-05T10:47:16.413Z,2.10
2017-11-05T10:49:49.791Z,80.57
2017-11-05T10:52:22.731Z,4.77
2017-11-05T10:55:13.222Z,5.10
2017-11-05T10:57:45.989Z,2.50
2017-11-05T11:00:15.458Z,3.10
2017-11-05T11:02:49.733Z,2.17
2017-11-05T11:05:41.519Z,3.27
2017-11-05T11:08:07.467Z,2.17
2017-11-05T11:10:38.946Z,3.30
2017-11-05T11:13:11.547Z,2.27
2017-11-05T11:15:45.195Z,1.70
2017-11-05T11:18:16.739Z,2.93
2017-11-05T11:20:42.741Z,2.60
2017-11-05T11:23:10.814Z,3.70
2017-11-05T11:25:44.038Z,3.53
2017-11-05T11:28:10.033Z,2.30
2017-11-05T11:30:36.767Z,3.40
2017-11-05T11:33:06.353Z,2.20
2017-11-05T11:35:32.402Z,3.03
2017-11-05T11:37:59.130Z,3.37
2017-11-05T11:40:25.216Z,3.77
2017-11-05T11:42:55.105Z,2.33
2017-11-05T11:45:22.902Z,2.80
2017-11-05T11:50:50.110Z,2.00
2017-11-05T11:53:16.250Z,2.40
2017-11-05T11:55:42.969Z,2.40
2017-11-05T11:58:10.977Z,1.87
2017-11-05T12:00:46.702Z,2.33
2017-11-05T12:03:12.628Z,2.37
2017-11-05T12:05:43.493Z,2.60
2017-11-05T12:08:09.439Z,2.50
2017-11-05T12:10:36.298Z,2.97
2017-11-05T12:13:05.995Z,2.60
2017-11-05T12:15:32.674Z,2.93
2017-11-05T12:18:23.098Z,2.63
2017-11-05T12:20:52.987Z,2.43
2017-11-05T12:23:26.254Z,2.07
2017-11-05T12:25:54.208Z,2.30
2017-11-05T12:28:31.303Z,3.40
2017-11-05T12:31:22.050Z,2.47
2017-11-05T12:33:51.947Z,2.50
2017-11-05T12:36:22.345Z,2.27
2017-11-05T12:38:48.278Z,2.17
2017-11-05T12:41:28.670Z,8.40
2017-11-05T12:44:05.313Z,3.00
2017-11-05T12:49:24.298Z,2.67
2017-11-05T12:54:44.754Z,6.73
2017-11-05T12:57:12.752Z,2.80
2017-11-05T12:59:50.679Z,2.07
2017-11-05T13:02:21.195Z,4.93
2017-11-05T13:04:57.951Z,4.90
2017-11-05T13:07:39.762Z,2.57
2017-11-05T13:10:09.433Z,9.40
2017-11-05T13:12:35.412Z,3.73
2017-11-05T13:15:01.441Z,2.80
2017-11-05T13:17:28.134Z,2.23
2017-11-05T13:19:54.122Z,3.90
2017-11-05T13:22:20.054Z,2.73
2017-11-05T13:24:49.601Z,4.70
2017-11-05T13:27:15.558Z,2.37
2017-11-05T13:29:42.681Z,3.13
2017-11-05T13:32:15.018Z,1.63
2017-11-05T13:34:51.760Z,5.50
2017-11-05T13:37:22.479Z,2.50
2017-11-05T13:40:07.991Z,7.17
2017-11-05T13:42:38.369Z,2.93
2017-11-05T13:45:04.354Z,2.60
2017-11-05T13:47:38.132Z,2.97
2017-11-05T13:50:05.223Z,13.30
2017-11-05T13:52:37.855Z,3.57
2017-11-05T13:55:04.074Z,8.57
2017-11-05T13:57:34.325Z,3.03
2017-11-05T14:00:04.271Z,2.93
2017-11-05T14:02:31.278Z,3.60
2017-11-05T14:04:57.969Z,3.17
2017-11-05T14:07:23.904Z,7.97
2017-11-05T14:09:49.869Z,3.70
2017-11-05T14:12:15.814Z,3.80
2017-11-05T14:14:43.487Z,5.13
2017-11-05T14:17:10.165Z,3.33
2017-11-05T14:19:37.084Z,5.10
2017-11-05T14:22:07.005Z,4.20
2017-11-05T14:24:34.808Z,7.80
2017-11-05T14:27:00.743Z,4.57
2017-11-05T14:29:29.901Z,9.50
2017-11-05T14:31:57.630Z,4.20
2017-11-05T14:34:23.545Z,7.43
2017-11-05T14:36:49.463Z,4.43
2017-11-05T14:39:15.408Z,10.00
2017-11-05T14:41:41.334Z,7.43
2017-11-05T14:44:07.307Z,9.77
2017-11-05T14:46:33.268Z,8.87
2017-11-05T14:48:59.219Z,9.00
2017-11-05T14:51:25.200Z,10.07
2017-11-05T14:53:51.134Z,5.63
2017-11-05T14:56:17.057Z,8.73
2017-11-05T14:58:42.968Z,12.87
2017-11-05T15:01:09.631Z,7.97
2017-11-05T15:03:35.562Z,5.77
2017-11-05T15:06:01.504Z,10.90
2017-11-05T15:08:27.425Z,12.10
2017-11-05T15:10:53.451Z,6.47
2017-11-05T15:13:19.406Z,12.20
2017-11-05T15:15:45.327Z,13.93
2017-11-05T15:18:17.590Z,6.83
2017-11-05T15:20:43.488Z,8.33
2017-11-05T15:23:09.417Z,10.63
2017-11-05T15:25:35.361Z,6.47
2017-11-05T15:28:01.306Z,12.10
2017-11-05T15:30:27.221Z,17.67
2017-11-05T15:32:53.182Z,10.50
2017-11-05T15:35:19.864Z,7.47
2017-11-05T15:37:45.787Z,8.10
2017-11-05T15:40:12.464Z,17.20
2017-11-05T15:42:38.418Z,8.70
2017-11-05T15:45:14.508Z,8.47
2017-11-05T15:47:45.156Z,9.33
2017-11-05T15:50:13.145Z,10.97
2017-11-05T15:52:39.089Z,13.33
2017-11-05T15:55:05.026Z,10.87
2017-11-05T15:57:30.969Z,7.83
2017-11-05T15:59:56.915Z,8.40
2017-11-05T16:02:23.602Z,10.03
2017-11-05T16:04:49.529Z,14.20
2017-11-05T16:07:30.453Z,8.90
2017-11-05T16:09:56.394Z,14.67
2017-11-05T16:12:23.086Z,10.10
2017-11-05T16:14:49.017Z,14.07
2017-11-05T16:17:18.822Z,12.73
2017-11-05T16:19:44.129Z,13.40
2017-11-05T16:22:10.057Z,10.90
2017-11-05T16:24:36.003Z,11.33
2017-11-05T16:27:01.942Z,16.70
2017-11-05T16:29:28.003Z,18.23
2017-11-05T16:31:54.744Z,10.63
2017-11-05T16:34:21.422Z,9.50
2017-11-05T16:36:47.362Z,9.50
2017-11-05T16:39:13.298Z,9.90
2017-11-05T16:41:39.247Z,26.87
2017-11-05T16:44:05.178Z,11.63
2017-11-05T16:46:31.118Z,9.17
2017-11-05T16:48:57.106Z,16.80
2017-11-05T16:51:23.050Z,13.17
2017-11-05T16:53:48.991Z,8.60
2017-11-05T16:56:14.931Z,13.40
2017-11-05T16:58:40.868Z,24.23
2017-11-05T17:01:06.839Z,23.10
2017-11-05T17:03:32.793Z,17.83
2017-11-05T17:05:58.802Z,12.70
2017-11-05T17:08:24.747Z,17.07
2017-11-05T17:10:50.690Z,9.97
2017-11-05T17:13:16.636Z,8.70
2017-11-05T17:15:42.686Z,12.23
2017-11-05T17:18:08.663Z,16.63
2017-11-05T17:20:34.689Z,13.20
2017-11-05T17:23:23.138Z,14.17
2017-11-05T17:25:50.136Z,8.07
2017-11-05T17:28:20.653Z,5.13
2017-11-05T17:30:51.316Z,9.50
2017-11-05T17:33:19.114Z,5.93
2017-11-05T17:35:46.095Z,5.57
2017-11-05T17:38:29.262Z,8.60
2017-11-05T17:43:53.871Z,10.83
2017-11-05T17:46:19.847Z,10.07
2017-11-05T17:48:46.849Z,14.73
2017-11-05T17:51:12.829Z,15.27
2017-11-05T17:53:47.589Z,13.10
2017-11-05T17:56:15.341Z,10.33
2017-11-05T17:59:01.745Z,11.73
2017-11-05T18:01:33.358Z,6.03
2017-11-05T18:04:09.806Z,5.97
2017-11-05T18:06:42.017Z,9.17
2017-11-05T18:09:19.277Z,12.70
2017-11-05T18:11:45.323Z,7.73
2017-11-05T18:14:30.670Z,4.63
2017-11-05T18:17:07.227Z,6.97
2017-11-05T18:19:33.170Z,6.37
2017-11-05T18:22:07.040Z,5.50
2017-11-05T18:24:44.480Z,10.90
2017-11-05T18:27:20.847Z,4.43
2017-11-05T18:29:59.141Z,6.07
2017-11-05T18:32:35.933Z,7.57
2017-11-05T18:35:20.870Z,7.80
2017-11-05T18:38:04.818Z,5.30
2017-11-05T18:40:30.909Z,5.17
2017-11-05T18:43:12.777Z,4.27
2017-11-05T18:45:43.398Z,6.00
2017-11-05T18:48:20.834Z,3.90
2017-11-05T18:50:50.598Z,7.30
2017-11-05T18:53:16.670Z,7.97
2017-11-05T18:55:53.424Z,10.07
2017-11-05T18:58:42.879Z,7.77
2017-11-05T19:01:16.772Z,8.97
2017-11-05T19:03:46.497Z,8.80
2017-11-05T19:06:24.755Z,5.57
2017-11-05T19:08:51.754Z,5.00
2017-11-05T19:11:25.807Z,7.87
2017-11-05T19:13:59.699Z,6.50
2017-11-05T19:16:29.700Z,6.07
2017-11-05T19:18:56.416Z,11.13
2017-11-05T19:21:32.666Z,3.23
2017-11-05T19:24:02.357Z,6.27
2017-11-05T19:26:29.496Z,4.40
2017-11-05T19:28:57.530Z,6.03
2017-11-05T19:31:23.586Z,8.80
2017-11-05T19:33:58.345Z,4.97
2017-11-05T19:36:30.409Z,8.23
2017-11-05T19:38:56.463Z,10.20
2017-11-05T19:41:42.278Z,11.90
2017-11-05T19:44:11.826Z,5.37
2017-11-05T19:46:48.207Z,4.27
2017-11-05T19:49:24.674Z,7.50
2017-11-05T19:51:51.666Z,6.97
2017-11-05T19:54:20.754Z,13.03
2017-11-05T19:56:55.030Z,8.23
2017-11-05T19:59:25.902Z,7.70
2017-11-05T20:02:10.322Z,10.97
2017-11-05T20:04:36.258Z,10.23
2017-11-05T20:07:02.246Z,9.67
2017-11-05T20:09:30.105Z,5.97
2017-11-05T20:11:59.655Z,5.00
2017-11-05T20:14:26.717Z,19.67
2017-11-05T20:17:03.786Z,6.33
2017-11-05T20:22:34.336Z,9.90
2017-11-05T20:25:01.403Z,11.70
2017-11-05T20:27:42.582Z,7.33
2017-11-05T20:30:09.626Z,6.13
2017-11-05T20:32:35.657Z,5.23
2017-11-05T20:35:08.755Z,9.87
2017-11-05T20:37:46.511Z,8.30
2017-11-05T20:40:15.303Z,10.40
2017-11-05T20:42:50.234Z,12.20
2017-11-05T20:45:20.401Z,10.23
2017-11-05T20:47:46.467Z,9.27
2017-11-05T20:50:15.778Z,13.90
2017-11-05T20:52:46.649Z,16.93
2017-11-05T20:55:18.856Z,8.10
2017-11-05T20:58:05.788Z,9.67
2017-11-05T21:00:31.838Z,6.93
2017-11-05T21:02:59.608Z,15.87
2017-11-05T21:05:26.642Z,8.00
2017-11-05T21:07:53.366Z,12.50
2017-11-05T21:10:22.615Z,12.50
2017-11-05T21:12:50.259Z,9.40
2017-11-05T21:15:16.514Z,8.87
2017-11-05T21:17:44.493Z,12.83
2017-11-05T21:20:19.738Z,12.37
2017-11-05T21:22:51.015Z,10.97
2017-11-05T21:25:28.005Z,10.17
2017-11-05T21:28:05.225Z,7.60
2017-11-05T21:30:37.741Z,7.40
2017-11-05T21:33:05.762Z,9.83
2017-11-05T21:35:31.962Z,11.70
2017-11-05T21:38:06.113Z,11.20
2017-11-05T21:40:35.867Z,13.60
2017-11-05T21:43:02.021Z,8.30
2017-11-05T21:45:36.559Z,12.03
2017-11-05T21:48:10.568Z,9.87
2017-11-05T21:50:43.110Z,9.80
2017-11-05T21:53:10.813Z,7.43
2017-11-05T21:55:37.821Z,19.50
2017-11-05T21:58:11.628Z,10.93
2017-11-05T22:00:45.130Z,14.40
2017-11-05T22:03:14.683Z,12.40
2017-11-05T22:05:55.109Z,19.43
2017-11-05T22:08:27.868Z,11.13
2017-11-05T22:10:55.613Z,12.70
2017-11-05T22:13:23.672Z,10.07
2017-11-05T22:16:08.299Z,19.07
2017-11-05T22:18:44.826Z,8.47
2017-11-05T22:21:15.338Z,13.60
2017-11-05T22:23:48.657Z,10.73
2017-11-05T22:26:26.076Z,18.27
2017-11-05T22:29:03.678Z,11.70
2017-11-05T22:31:39.155Z,10.70
2017-11-05T22:34:07.629Z,17.77
2017-11-05T22:36:33.643Z,12.07
2017-11-05T22:39:03.625Z,7.73
2017-11-05T22:41:34.167Z,11.40
2017-11-05T22:44:03.638Z,15.57
2017-11-05T22:46:43.221Z,13.13
2017-11-05T22:49:10.283Z,18.73
2017-11-05T22:51:40.094Z,9.33
2017-11-05T22:54:09.550Z,16.33
2017-11-05T22:56:35.595Z,11.40
2017-11-05T22:59:09.622Z,11.70
2017-11-05T23:01:44.054Z,11.87
2017-11-05T23:04:11.996Z,11.03
2017-11-05T23:06:41.516Z,12.63
2017-11-05T23:09:10.186Z,14.27
2017-11-05T23:11:36.111Z,13.37
2017-11-05T23:14:02.142Z,10.43
2017-11-05T23:16:28.206Z,12.27
2017-11-05T23:18:55.261Z,11.93
2017-11-05T23:21:28.057Z,12.43
2017-11-05T23:23:54.206Z,11.13
2017-11-05T23:26:32.069Z,12.63
2017-11-05T23:29:06.602Z,14.77
2017-11-05T23:31:37.160Z,11.13
2017-11-05T23:34:13.615Z,15.03
2017-11-05T23:36:43.166Z,12.20
2017-11-05T23:39:11.171Z,16.67
2017-11-05T23:41:44.358Z,15.27
2017-11-05T23:44:24.878Z,11.97
2017-11-05T23:47:01.377Z,10.90
2017-11-05T23:49:37.880Z,13.23
2017-11-05T23:52:03.931Z,16.87
2017-11-05T23:54:29.918Z,17.67
2017-11-05T23:57:05.259Z,14.13
2017-11-05T23:59:37.806Z,15.37
